createdAt,value
2018-07-02T00:02:20.000Z,24.46
2018-07-02T00:12:20.000Z,24.44
2018-07-02T00:22:20.000Z,24.42
2018-07-02T00:32:20.000Z,24.38
2018-07-02T00:42:20.000Z,24.24
2018-07-02T00:52:20.000Z,24.18
2018-07-02T01:02:20.000Z,24.21
2018-07-02T01:12:20.000Z,24.21
2018-07-02T01:22:20.000Z,24.12
2018-07-02T01:32:20.000Z,24.15
2018-07-02T01:42:20.000Z,24.14
2018-07-02T01:52:20.000Z,24.05
2018-07-02T02:02:20.000Z,23.95
2018-07-02T02:12:20.000Z,23.85
2018-07-02T02:22:20.000Z,23.84
2018-07-02T02:32:20.000Z,23.73
2018-07-02T02:42:20.000Z,23.71
2018-07-02T02:52:20.000Z,23.65
2018-07-02T03:02:20.000Z,23.57
2018-07-02T03:12:20.000Z,23.55
2018-07-02T03:22:20.000Z,23.5
2018-07-02T03:32:20.000Z,23.49
2018-07-02T03:42:20.000Z,23.46
2018-07-02T03:52:20.000Z,23.46
2018-07-02T04:02:20.000Z,23.4
2018-07-02T04:12:20.000Z,23.33
2018-07-02T04:22:20.000Z,23.25
2018-07-02T04:32:20.000Z,23.29
2018-07-02T04:42:20.000Z,23.22
2018-07-02T04:52:20.000Z,23.3
2018-07-02T05:02:20.000Z,23.47
2018-07-02T05:12:20.000Z,23.42
2018-07-02T05:22:20.000Z,23.55
2018-07-02T05:32:21.000Z,23.72
2018-07-02T05:42:20.000Z,23.61
2018-07-02T05:52:20.000Z,23.76
2018-07-02T06:02:21.000Z,23.42
2018-07-02T06:12:20.000Z,23.72
2018-07-02T06:22:20.000Z,23.75
2018-07-02T06:32:20.000Z,23.4
2018-07-02T06:42:20.000Z,23.79
2018-07-02T06:52:20.000Z,23.77
2018-07-02T07:02:21.000Z,23.7
2018-07-02T07:12:21.000Z,24.05
2018-07-02T07:22:21.000Z,24.07
2018-07-02T07:32:21.000Z,23.99
2018-07-02T07:42:21.000Z,24.24
2018-07-02T07:52:21.000Z,24.38
2018-07-02T08:02:21.000Z,24.57
2018-07-02T08:12:21.000Z,24.47
2018-07-02T08:22:21.000Z,24.34
2018-07-02T08:32:21.000Z,24.63
2018-07-02T08:42:21.000Z,24.93
2018-07-02T08:52:21.000Z,24.77
2018-07-02T09:02:21.000Z,24.78
2018-07-02T09:12:21.000Z,25.17
2018-07-02T09:22:21.000Z,25.37
2018-07-02T09:32:21.000Z,25.49
2018-07-02T09:42:21.000Z,25.59
2018-07-02T09:52:21.000Z,25.7
2018-07-02T10:02:21.000Z,25.75
2018-07-02T10:12:21.000Z,25.93
2018-07-02T10:22:21.000Z,25.77
2018-07-02T10:32:21.000Z,25.64
2018-07-02T10:42:21.000Z,25.9
2018-07-02T10:52:21.000Z,26.22
2018-07-02T11:02:21.000Z,26.29
2018-07-02T11:12:21.000Z,26.48
2018-07-02T11:22:21.000Z,26.52
2018-07-02T11:32:21.000Z,26.34
2018-07-02T11:42:21.000Z,26.23
2018-07-02T11:52:21.000Z,26.57
2018-07-02T12:02:21.000Z,26.64
2018-07-02T12:12:21.000Z,26.25
2018-07-02T12:22:21.000Z,26.36
2018-07-02T12:32:21.000Z,26.71
2018-07-02T12:42:21.000Z,26.44
2018-07-02T12:52:21.000Z,26.59
2018-07-02T13:02:21.000Z,26.65
2018-07-02T13:12:21.000Z,26.51
2018-07-02T13:22:21.000Z,26.63
2018-07-02T13:32:21.000Z,26.77
2018-07-02T13:42:21.000Z,26.6
2018-07-02T13:52:22.000Z,26.65
2018-07-02T14:02:21.000Z,26.51
2018-07-02T14:12:23.000Z,26.56
2018-07-02T14:22:21.000Z,26.39
2018-07-02T14:32:21.000Z,26.49
2018-07-02T14:42:21.000Z,26.33
2018-07-02T14:52:22.000Z,26.31
2018-07-02T15:02:21.000Z,26.37
2018-07-02T15:12:22.000Z,26.29
2018-07-02T15:22:22.000Z,26.24
2018-07-02T15:32:22.000Z,26.23
2018-07-02T15:42:23.000Z,26.25
2018-07-02T15:52:22.000Z,26.2
2018-07-02T16:02:22.000Z,26.16
2018-07-02T16:12:22.000Z,26.14
2018-07-02T16:22:22.000Z,26.24
2018-07-02T16:32:22.000Z,26.08
2018-07-02T16:42:22.000Z,26
2018-07-02T16:52:22.000Z,26.07
2018-07-02T17:02:22.000Z,26.07
2018-07-02T17:12:22.000Z,26.1
2018-07-02T17:22:22.000Z,25.94
2018-07-02T17:32:22.000Z,25.89
2018-07-02T17:42:22.000Z,25.87
2018-07-02T17:52:22.000Z,25.88
2018-07-02T18:02:22.000Z,25.89
2018-07-02T18:12:22.000Z,25.8
2018-07-02T18:22:23.000Z,25.85
2018-07-02T18:32:22.000Z,25.68
2018-07-02T18:42:22.000Z,25.84
2018-07-02T18:52:22.000Z,25.69
2018-07-02T19:02:22.000Z,25.6
2018-07-02T19:12:22.000Z,25.66
2018-07-02T19:22:22.000Z,25.68
2018-07-02T19:32:22.000Z,25.7
2018-07-02T19:42:22.000Z,25.52
2018-07-02T20:02:22.000Z,25.4
2018-07-02T20:12:22.000Z,25.39
2018-07-02T20:22:22.000Z,25.37
2018-07-02T20:32:22.000Z,25.32
2018-07-02T20:42:22.000Z,25.27
2018-07-02T20:52:22.000Z,25.24
2018-07-02T21:02:22.000Z,25.31
2018-07-02T21:12:22.000Z,25.4
2018-07-02T21:22:22.000Z,25.36
2018-07-02T21:32:22.000Z,25.04
2018-07-02T21:42:22.000Z,24.72
2018-07-02T21:52:22.000Z,24.6
2018-07-02T22:02:22.000Z,24.64
2018-07-02T22:12:22.000Z,24.62
2018-07-02T22:22:22.000Z,24.54
2018-07-02T22:32:22.000Z,24.46
2018-07-02T22:42:22.000Z,24.49
2018-07-02T22:52:22.000Z,24.33
2018-07-02T23:12:22.000Z,24.3
2018-07-02T23:22:23.000Z,24.41
2018-07-02T23:32:23.000Z,24.33
2018-07-02T23:42:23.000Z,24.22
2018-07-02T23:52:23.000Z,24.27
